createdAt,value
2023-05-10T00:01:54.860Z,56.26
2023-05-10T00:04:21.808Z,56.49
2023-05-10T00:06:48.105Z,56.17
2023-05-10T00:09:14.460Z,56.39
2023-05-10T00:11:40.632Z,56.12
2023-05-10T00:14:06.971Z,55.85
2023-05-10T00:16:33.305Z,55.74
2023-05-10T00:18:59.649Z,55.63
2023-05-10T00:21:26.136Z,55.65
2023-05-10T00:23:52.416Z,55.45
2023-05-10T00:26:18.670Z,55.52
2023-05-10T00:28:44.902Z,55.34
2023-05-10T00:31:11.331Z,55.21
2023-05-10T00:33:37.765Z,54.82
2023-05-10T00:36:04.468Z,54.18
2023-05-10T00:38:30.731Z,53.84
2023-05-10T00:40:57.032Z,53.70
2023-05-10T00:43:23.195Z,53.69
2023-05-10T00:45:50.124Z,53.70
2023-05-10T00:48:16.713Z,53.37
2023-05-10T00:50:43.144Z,53.22
2023-05-10T00:53:09.649Z,53.47
2023-05-10T00:55:36.460Z,53.22
2023-05-10T00:58:03.157Z,53.20
2023-05-10T01:00:30.027Z,53.21
2023-05-10T01:02:56.453Z,53.28
2023-05-10T01:05:22.885Z,53.21
2023-05-10T01:07:49.248Z,53.31
2023-05-10T01:10:15.956Z,52.69
2023-05-10T01:12:45.442Z,52.53
2023-05-10T01:15:13.251Z,52.46
2023-05-10T01:17:42.774Z,52.39
2023-05-10T01:20:10.455Z,52.36
2023-05-10T01:22:36.656Z,52.24
2023-05-10T01:25:11.900Z,52.23
2023-05-10T01:27:46.694Z,52.33
2023-05-10T01:30:47.159Z,52.19
2023-05-10T01:33:22.689Z,52.16
2023-05-10T01:36:01.929Z,52.27
2023-05-10T01:38:53.371Z,52.04
2023-05-10T01:41:36.823Z,51.84
2023-05-10T01:44:11.914Z,51.77
2023-05-10T01:46:40.686Z,51.66
2023-05-10T01:49:22.631Z,51.60
2023-05-10T01:51:52.410Z,51.63
2023-05-10T01:54:22.108Z,51.64
2023-05-10T01:56:53.433Z,51.70
2023-05-10T01:59:20.798Z,51.92
2023-05-10T02:01:49.335Z,52.08
2023-05-10T02:04:17.822Z,52.16
2023-05-10T02:06:46.863Z,52.09
2023-05-10T02:09:14.559Z,52.03
2023-05-10T02:11:43.968Z,52.17
2023-05-10T02:14:11.859Z,52.19
2023-05-10T02:16:39.845Z,52.34
2023-05-10T02:19:08.863Z,52.55
2023-05-10T02:21:38.764Z,52.76
2023-05-10T02:24:06.569Z,52.79
2023-05-10T02:26:35.469Z,52.83
2023-05-10T02:29:04.062Z,53.05
2023-05-10T02:31:35.594Z,53.14
2023-05-10T02:34:03.857Z,53.43
2023-05-10T02:36:30.400Z,53.62
2023-05-10T02:38:57.990Z,53.80
2023-05-10T02:41:26.703Z,53.72
2023-05-10T02:43:57.904Z,54.11
2023-05-10T02:46:24.266Z,54.23
2023-05-10T02:48:50.645Z,54.33
2023-05-10T02:51:18.611Z,54.61
2023-05-10T02:53:47.244Z,54.69
2023-05-10T02:56:25.417Z,55.02
2023-05-10T02:58:53.065Z,55.32
2023-05-10T03:01:19.446Z,55.31
2023-05-10T03:03:45.931Z,55.40
2023-05-10T03:06:12.363Z,55.74
2023-05-10T03:08:39.061Z,55.71
2023-05-10T03:11:18.112Z,55.55
2023-05-10T03:14:21.824Z,55.50
2023-05-10T03:16:57.125Z,56.02
2023-05-10T03:19:30.621Z,56.00
2023-05-10T03:22:00.409Z,56.14
2023-05-10T03:24:27.877Z,56.48
2023-05-10T03:26:57.145Z,56.44
2023-05-10T03:29:26.710Z,56.71
2023-05-10T03:31:53.261Z,56.70
2023-05-10T03:34:24.915Z,57.02
2023-05-10T03:36:51.648Z,56.80
2023-05-10T03:39:17.924Z,56.50
2023-05-10T03:41:44.592Z,56.53
2023-05-10T03:44:10.970Z,56.68
2023-05-10T03:46:37.200Z,56.62
2023-05-10T03:49:03.547Z,56.20
2023-05-10T03:51:31.535Z,56.05
2023-05-10T03:53:57.818Z,56.09
2023-05-10T03:56:24.138Z,56.15
2023-05-10T03:58:50.556Z,55.95
2023-05-10T04:01:16.781Z,56.01
2023-05-10T04:03:43.139Z,55.61
2023-05-10T04:06:12.046Z,55.49
2023-05-10T04:08:38.558Z,55.46
2023-05-10T04:11:06.818Z,55.48
2023-05-10T04:13:33.187Z,55.18
2023-05-10T04:15:59.680Z,54.34
2023-05-10T04:18:26.066Z,54.55
2023-05-10T04:20:52.375Z,54.34
2023-05-10T04:23:18.640Z,53.87
2023-05-10T04:25:45.045Z,53.85
2023-05-10T04:28:11.316Z,53.82
2023-05-10T04:30:37.973Z,53.44
2023-05-10T04:33:04.640Z,52.88
2023-05-10T04:35:31.046Z,52.52
2023-05-10T04:37:57.265Z,52.06
2023-05-10T04:40:23.570Z,52.04
2023-05-10T04:42:49.989Z,51.85
2023-05-10T04:45:16.282Z,51.70
2023-05-10T04:47:42.622Z,51.64
2023-05-10T04:50:09.386Z,50.87
2023-05-10T04:52:36.676Z,51.27
2023-05-10T04:55:10.005Z,50.60
2023-05-10T04:57:38.173Z,50.34
2023-05-10T05:00:05.023Z,50.06
2023-05-10T05:02:31.573Z,50.13
2023-05-10T05:05:00.862Z,50.23
2023-05-10T05:07:27.230Z,50.19
2023-05-10T05:09:53.562Z,49.86
2023-05-10T05:12:19.790Z,49.89
2023-05-10T05:14:46.529Z,50.10
2023-05-10T05:17:12.971Z,49.80
2023-05-10T05:19:39.323Z,48.56
2023-05-10T05:22:11.469Z,48.54
2023-05-10T05:24:38.881Z,49.02
2023-05-10T05:27:06.149Z,49.12
2023-05-10T05:29:32.577Z,48.61
2023-05-10T05:31:58.961Z,48.49
2023-05-10T05:34:25.887Z,48.60
2023-05-10T05:36:52.671Z,47.59
2023-05-10T05:39:19.108Z,47.15
2023-05-10T05:41:46.447Z,45.52
2023-05-10T05:44:12.750Z,44.25
2023-05-10T05:46:39.059Z,42.83
2023-05-10T05:49:05.348Z,41.78
2023-05-10T05:51:31.698Z,40.69
2023-05-10T05:53:58.341Z,40.11
2023-05-10T05:56:24.850Z,40.31
2023-05-10T05:58:51.575Z,40.30
2023-05-10T06:01:17.979Z,39.17
2023-05-10T06:03:44.238Z,39.02
2023-05-10T06:06:10.609Z,38.79
2023-05-10T06:08:36.952Z,39.09
2023-05-10T06:11:04.411Z,38.69
2023-05-10T06:13:32.797Z,38.74
2023-05-10T06:15:59.232Z,38.29
2023-05-10T06:18:26.039Z,37.54
2023-05-10T06:20:52.418Z,38.22
2023-05-10T06:23:18.624Z,37.78
2023-05-10T06:25:44.877Z,36.46
2023-05-10T06:28:11.533Z,36.03
2023-05-10T06:30:37.879Z,36.22
2023-05-10T06:33:04.164Z,35.46
2023-05-10T06:35:32.513Z,35.85
2023-05-10T06:37:58.787Z,35.59
2023-05-10T06:40:25.157Z,35.80
2023-05-10T06:42:51.560Z,36.10
2023-05-10T06:45:17.988Z,35.59
2023-05-10T06:47:44.540Z,34.81
2023-05-10T06:50:14.554Z,34.96
2023-05-10T06:52:40.948Z,35.29
2023-05-10T06:55:08.724Z,34.27
2023-05-10T06:57:35.036Z,34.67
2023-05-10T07:00:02.128Z,34.97
2023-05-10T07:02:28.560Z,34.63
2023-05-10T07:04:55.088Z,33.43
2023-05-10T07:07:21.588Z,34.27
2023-05-10T07:09:47.895Z,34.37
2023-05-10T07:12:15.521Z,33.20
2023-05-10T07:14:42.488Z,32.95
2023-05-10T07:17:09.333Z,32.64
2023-05-10T07:19:36.312Z,31.63
2023-05-10T07:22:02.721Z,30.60
2023-05-10T07:24:29.594Z,31.02
2023-05-10T07:26:55.912Z,30.84
2023-05-10T07:29:22.259Z,30.73
2023-05-10T07:31:48.557Z,30.24
2023-05-10T07:34:14.864Z,29.77
2023-05-10T07:36:41.314Z,28.19
2023-05-10T07:39:07.845Z,28.13
2023-05-10T07:41:35.725Z,28.75
2023-05-10T07:44:02.367Z,29.02
2023-05-10T07:46:28.942Z,29.83
2023-05-10T07:48:55.443Z,29.10
2023-05-10T07:51:21.893Z,29.26
2023-05-10T07:53:48.278Z,29.79
2023-05-10T07:56:27.677Z,27.56
2023-05-10T07:58:54.745Z,26.98
2023-05-10T08:01:21.163Z,27.54
2023-05-10T08:03:47.824Z,26.96
2023-05-10T08:06:15.934Z,27.20
2023-05-10T08:08:42.649Z,27.39
2023-05-10T08:11:09.016Z,27.93
2023-05-10T08:13:35.706Z,27.50
2023-05-10T08:16:02.793Z,27.56
2023-05-10T08:18:29.321Z,27.90
2023-05-10T08:20:55.811Z,27.90
2023-05-10T08:23:22.268Z,27.97
2023-05-10T08:25:48.847Z,27.74
2023-05-10T08:28:15.366Z,27.40
2023-05-10T08:30:41.747Z,27.23
2023-05-10T08:33:08.042Z,27.02
2023-05-10T08:35:35.516Z,26.95
2023-05-10T08:38:01.887Z,27.00
2023-05-10T08:40:28.520Z,26.61
2023-05-10T08:43:02.984Z,26.68
2023-05-10T08:45:32.793Z,26.63
2023-05-10T08:48:02.246Z,26.88
2023-05-10T08:50:29.972Z,27.68
2023-05-10T08:52:59.793Z,27.77
2023-05-10T08:55:26.281Z,26.71
2023-05-10T08:57:52.855Z,26.38
2023-05-10T09:00:20.375Z,26.30
2023-05-10T09:02:50.063Z,26.99
2023-05-10T09:05:18.080Z,27.50
2023-05-10T09:07:44.689Z,27.60
2023-05-10T09:10:11.913Z,26.89
2023-05-10T09:12:39.043Z,27.03
2023-05-10T09:15:07.341Z,25.67
2023-05-10T09:17:34.339Z,26.29
2023-05-10T09:20:01.825Z,26.01
2023-05-10T09:22:28.217Z,26.20
2023-05-10T09:25:05.233Z,26.76
2023-05-10T09:27:31.573Z,26.76
2023-05-10T09:29:57.991Z,26.11
2023-05-10T09:32:42.030Z,25.57
2023-05-10T09:35:10.495Z,25.20
2023-05-10T09:37:40.150Z,25.40
2023-05-10T09:40:07.859Z,26.03
2023-05-10T09:42:35.385Z,24.56
2023-05-10T09:45:05.925Z,25.03
2023-05-10T09:47:33.968Z,25.33
2023-05-10T09:50:03.906Z,24.91
2023-05-10T09:52:40.501Z,24.74
2023-05-10T09:55:07.580Z,25.49
2023-05-10T09:57:35.214Z,24.79
2023-05-10T10:00:04.174Z,24.36
2023-05-10T10:02:31.330Z,24.75
2023-05-10T10:04:57.831Z,25.20
2023-05-10T10:07:25.900Z,24.09
2023-05-10T10:09:52.754Z,24.92
2023-05-10T10:12:20.473Z,24.56
2023-05-10T10:14:50.756Z,24.15
2023-05-10T10:17:18.789Z,24.45
2023-05-10T10:19:50.010Z,24.46
2023-05-10T10:22:17.644Z,24.82
2023-05-10T10:24:43.963Z,24.65
2023-05-10T10:27:35.380Z,24.78
2023-05-10T10:30:13.029Z,24.45
2023-05-10T10:33:27.240Z,24.62
2023-05-10T10:35:58.065Z,23.15
2023-05-10T10:38:24.906Z,23.17
2023-05-10T10:41:10.553Z,23.51
2023-05-10T10:43:36.916Z,24.36
2023-05-10T10:46:17.339Z,23.48
2023-05-10T10:49:08.419Z,24.33
2023-05-10T10:51:38.583Z,24.10
2023-05-10T10:54:11.972Z,23.53
2023-05-10T10:56:38.709Z,23.21
2023-05-10T10:59:05.322Z,23.40
2023-05-10T11:01:35.818Z,23.73
2023-05-10T11:04:04.694Z,23.47
2023-05-10T11:06:34.379Z,22.98
2023-05-10T11:09:08.867Z,23.59
2023-05-10T11:11:36.388Z,24.19
2023-05-10T11:14:07.394Z,23.69
2023-05-10T11:16:44.355Z,24.11
2023-05-10T11:19:13.197Z,24.48
2023-05-10T11:21:48.838Z,24.37
2023-05-10T11:24:18.343Z,24.41
2023-05-10T11:26:44.949Z,24.31
2023-05-10T11:29:13.213Z,23.49
2023-05-10T11:31:44.357Z,22.90
2023-05-10T11:34:11.298Z,22.37
2023-05-10T11:36:37.989Z,21.15
2023-05-10T11:39:05.080Z,21.73
2023-05-10T11:41:32.145Z,23.02
2023-05-10T11:43:59.412Z,24.16
2023-05-10T11:46:28.678Z,23.10
2023-05-10T11:49:01.814Z,21.53
2023-05-10T11:51:28.219Z,21.75
2023-05-10T11:53:56.983Z,22.26
2023-05-10T11:56:23.754Z,23.02
2023-05-10T11:58:55.968Z,22.50
2023-05-10T12:01:23.526Z,22.98
2023-05-10T12:03:51.095Z,23.82
2023-05-10T12:06:19.293Z,24.22
2023-05-10T12:08:47.266Z,23.91
2023-05-10T12:11:15.868Z,23.86
2023-05-10T12:13:46.809Z,23.66
2023-05-10T12:16:33.584Z,23.47
2023-05-10T12:19:01.014Z,23.16
2023-05-10T12:21:29.405Z,23.86
2023-05-10T12:24:01.840Z,23.55
2023-05-10T12:26:29.462Z,23.27
2023-05-10T12:29:18.683Z,22.58
2023-05-10T12:32:11.529Z,21.86
2023-05-10T12:34:38.819Z,21.56
2023-05-10T12:37:05.256Z,22.37
2023-05-10T12:39:42.535Z,22.52
2023-05-10T12:42:10.100Z,22.99
2023-05-10T12:44:36.615Z,23.32
2023-05-10T12:47:03.078Z,23.91
2023-05-10T12:49:29.557Z,24.50
2023-05-10T12:51:55.937Z,24.47
2023-05-10T12:54:22.326Z,23.82
2023-05-10T12:56:48.526Z,23.72
2023-05-10T12:59:14.892Z,24.25
2023-05-10T13:01:41.304Z,24.28
2023-05-10T13:04:08.142Z,24.52
2023-05-10T13:06:35.471Z,24.04
2023-05-10T13:09:01.762Z,23.92
2023-05-10T13:11:28.256Z,24.60
2023-05-10T13:13:54.592Z,24.84
2023-05-10T13:16:20.998Z,23.83
2023-05-10T13:18:47.275Z,23.49
2023-05-10T13:21:13.710Z,22.94
2023-05-10T13:23:39.982Z,23.78
2023-05-10T13:26:06.276Z,24.40
2023-05-10T13:28:32.805Z,25.06
2023-05-10T13:31:00.518Z,25.24
2023-05-10T13:33:26.845Z,24.10
2023-05-10T13:35:55.521Z,25.00
2023-05-10T13:38:22.534Z,24.99
2023-05-10T13:40:52.703Z,24.24
2023-05-10T13:43:19.466Z,23.80
2023-05-10T13:45:45.903Z,23.77
2023-05-10T13:48:12.352Z,24.05
2023-05-10T13:50:38.835Z,24.08
2023-05-10T13:53:06.001Z,23.57
2023-05-10T13:55:32.299Z,23.71
2023-05-10T13:57:58.670Z,23.40
2023-05-10T14:00:25.265Z,23.30
2023-05-10T14:02:51.649Z,22.73
2023-05-10T14:05:19.924Z,21.92
2023-05-10T14:07:48.525Z,21.45
2023-05-10T14:10:14.863Z,21.74
2023-05-10T14:12:41.186Z,21.28
2023-05-10T14:15:10.682Z,21.61
2023-05-10T14:17:37.052Z,21.75
2023-05-10T14:20:04.162Z,22.32
2023-05-10T14:22:30.526Z,22.14
2023-05-10T14:24:57.011Z,21.91
2023-05-10T14:27:23.304Z,22.00
2023-05-10T14:29:49.534Z,21.79
2023-05-10T14:32:16.101Z,21.95
2023-05-10T14:34:42.593Z,22.48
2023-05-10T14:37:11.775Z,22.75
2023-05-10T14:39:38.237Z,23.30
2023-05-10T14:42:05.024Z,23.36
2023-05-10T14:44:31.970Z,22.06
2023-05-10T14:46:58.274Z,22.28
2023-05-10T14:49:26.195Z,22.18
2023-05-10T14:51:52.565Z,22.12
2023-05-10T14:54:18.803Z,22.40
2023-05-10T14:56:45.521Z,22.16
2023-05-10T14:59:11.939Z,22.08
2023-05-10T15:01:41.676Z,21.83
2023-05-10T15:04:08.497Z,21.45
2023-05-10T15:06:35.749Z,21.76
2023-05-10T15:09:03.825Z,21.80
2023-05-10T15:11:30.101Z,21.98
2023-05-10T15:13:56.349Z,22.15
2023-05-10T15:16:22.734Z,22.11
2023-05-10T15:18:49.430Z,21.45
2023-05-10T15:21:15.873Z,22.19
2023-05-10T15:23:42.215Z,22.02
2023-05-10T15:26:08.859Z,21.57
2023-05-10T15:28:35.350Z,21.26
2023-05-10T15:31:01.687Z,20.79
2023-05-10T15:33:28.105Z,20.69
2023-05-10T15:35:54.497Z,19.82
2023-05-10T15:38:20.784Z,18.97
2023-05-10T15:40:47.161Z,18.82
2023-05-10T15:43:14.090Z,18.89
2023-05-10T15:45:40.865Z,18.44
2023-05-10T15:48:07.393Z,18.46
2023-05-10T15:50:33.780Z,18.83
2023-05-10T15:53:00.059Z,19.78
2023-05-10T15:55:27.109Z,20.38
2023-05-10T15:57:53.767Z,21.56
2023-05-10T16:00:20.374Z,22.05
2023-05-10T16:02:46.784Z,23.46
2023-05-10T16:05:13.279Z,24.00
2023-05-10T16:07:41.041Z,24.74
2023-05-10T16:10:09.513Z,25.51
2023-05-10T16:12:36.104Z,25.78
2023-05-10T16:15:02.496Z,25.91
2023-05-10T16:17:28.882Z,26.35
2023-05-10T16:19:55.315Z,26.31
2023-05-10T16:22:21.753Z,26.67
2023-05-10T16:24:48.176Z,26.53
2023-05-10T16:27:15.485Z,26.91
2023-05-10T16:29:41.975Z,26.95
2023-05-10T16:32:09.662Z,27.22
2023-05-10T16:34:36.080Z,27.65
2023-05-10T16:37:02.417Z,27.69
2023-05-10T16:39:28.694Z,27.76
2023-05-10T16:41:54.997Z,27.84
2023-05-10T16:44:23.530Z,27.93
2023-05-10T16:46:52.509Z,28.10
2023-05-10T16:49:18.745Z,28.35
2023-05-10T16:51:45.207Z,28.38
2023-05-10T16:54:11.555Z,28.39
2023-05-10T16:56:37.883Z,28.38
2023-05-10T16:59:05.086Z,28.49
2023-05-10T17:01:32.774Z,28.62
2023-05-10T17:04:00.260Z,28.48
2023-05-10T17:06:26.576Z,28.64
2023-05-10T17:08:52.893Z,28.60
2023-05-10T17:11:21.138Z,28.86
2023-05-10T17:13:47.535Z,29.30
2023-05-10T17:16:13.892Z,29.66
2023-05-10T17:18:41.947Z,29.52
2023-05-10T17:21:08.797Z,29.38
2023-05-10T17:23:35.147Z,29.22
2023-05-10T17:26:04.228Z,29.00
2023-05-10T17:28:30.549Z,29.61
2023-05-10T17:30:57.568Z,29.45
2023-05-10T17:33:23.903Z,29.38
2023-05-10T17:35:50.734Z,29.47
2023-05-10T17:38:17.215Z,29.85
2023-05-10T17:40:43.711Z,30.17
2023-05-10T17:43:10.613Z,30.12
2023-05-10T17:45:37.215Z,30.11
2023-05-10T17:48:03.966Z,30.20
2023-05-10T17:50:31.901Z,30.30
2023-05-10T17:52:58.272Z,30.71
2023-05-10T17:55:26.383Z,30.83
2023-05-10T17:57:52.742Z,31.06
2023-05-10T18:00:19.307Z,31.28
2023-05-10T18:02:45.651Z,31.35
2023-05-10T18:05:12.190Z,31.62
2023-05-10T18:07:39.218Z,31.83
2023-05-10T18:10:06.448Z,32.16
2023-05-10T18:12:32.900Z,32.25
2023-05-10T18:14:59.233Z,32.43
2023-05-10T18:17:25.603Z,32.57
2023-05-10T18:19:51.908Z,32.71
2023-05-10T18:22:18.151Z,32.94
2023-05-10T18:24:46.281Z,33.14
2023-05-10T18:27:12.649Z,33.14
2023-05-10T18:29:44.941Z,33.51
2023-05-10T18:32:11.850Z,33.65
2023-05-10T18:34:38.162Z,33.63
2023-05-10T18:37:06.557Z,33.98
2023-05-10T18:39:33.454Z,34.19
2023-05-10T18:41:59.982Z,34.34
2023-05-10T18:44:26.490Z,34.44
2023-05-10T18:46:54.144Z,34.69
2023-05-10T18:49:20.627Z,34.76
2023-05-10T18:51:47.080Z,34.95
2023-05-10T18:54:14.339Z,35.22
2023-05-10T18:56:44.276Z,35.52
2023-05-10T18:59:11.575Z,35.52
2023-05-10T19:01:40.240Z,35.88
2023-05-10T19:04:08.095Z,36.35
2023-05-10T19:06:35.185Z,36.29
2023-05-10T19:09:01.561Z,36.22
2023-05-10T19:11:31.387Z,36.70
2023-05-10T19:13:58.881Z,36.99
2023-05-10T19:16:29.285Z,37.36
2023-05-10T19:18:56.366Z,37.35
2023-05-10T19:21:22.805Z,37.45
2023-05-10T19:23:49.120Z,37.42
2023-05-10T19:26:15.599Z,37.60
2023-05-10T19:28:42.352Z,37.92
2023-05-10T19:31:08.776Z,38.14
2023-05-10T19:33:37.082Z,38.31
2023-05-10T19:36:04.181Z,38.37
2023-05-10T19:38:30.700Z,38.68
2023-05-10T19:40:58.525Z,38.53
2023-05-10T19:43:30.649Z,38.83
2023-05-10T19:45:59.844Z,39.22
2023-05-10T19:48:27.114Z,39.78
2023-05-10T19:50:58.361Z,40.36
2023-05-10T19:53:24.721Z,40.25
2023-05-10T19:55:51.484Z,39.97
2023-05-10T19:58:18.235Z,40.08
2023-05-10T20:00:44.645Z,40.13
2023-05-10T20:03:11.000Z,40.25
2023-05-10T20:05:37.337Z,40.45
2023-05-10T20:08:03.718Z,40.72
2023-05-10T20:10:30.218Z,40.69
2023-05-10T20:12:58.007Z,40.89
2023-05-10T20:15:24.371Z,41.23
2023-05-10T20:17:52.405Z,41.28
2023-05-10T20:20:20.412Z,41.46
2023-05-10T20:22:47.981Z,41.71
2023-05-10T20:25:15.279Z,41.63
2023-05-10T20:27:41.817Z,41.73
2023-05-10T20:30:09.726Z,41.71
2023-05-10T20:32:37.093Z,41.77
2023-05-10T20:35:04.660Z,42.06
2023-05-10T20:37:31.195Z,42.06
2023-05-10T20:39:57.540Z,42.24
2023-05-10T20:42:24.095Z,42.31
2023-05-10T20:44:50.534Z,42.69
2023-05-10T20:47:17.464Z,42.51
2023-05-10T20:49:43.724Z,42.72
2023-05-10T20:52:10.335Z,42.86
2023-05-10T20:54:36.978Z,42.73
2023-05-10T20:57:03.419Z,42.93
2023-05-10T20:59:31.306Z,43.03
2023-05-10T21:01:59.835Z,43.01
2023-05-10T21:04:26.505Z,43.28
2023-05-10T21:06:53.034Z,43.14
2023-05-10T21:09:19.438Z,43.26
2023-05-10T21:11:45.833Z,43.49
2023-05-10T21:14:12.077Z,43.47
2023-05-10T21:16:38.549Z,43.56
2023-05-10T21:19:06.556Z,43.63
2023-05-10T21:21:32.874Z,43.43
2023-05-10T21:23:59.171Z,43.40
2023-05-10T21:26:25.494Z,43.43
2023-05-10T21:28:52.317Z,43.43
2023-05-10T21:31:18.543Z,43.32
2023-05-10T21:33:45.181Z,43.46
2023-05-10T21:36:12.043Z,43.46
2023-05-10T21:38:38.899Z,43.49
2023-05-10T21:41:08.051Z,43.35
2023-05-10T21:43:35.461Z,43.60
2023-05-10T21:46:01.846Z,43.47
2023-05-10T21:48:28.192Z,43.70
2023-05-10T21:50:54.450Z,43.70
2023-05-10T21:53:21.555Z,43.97
2023-05-10T21:55:47.814Z,44.07
2023-05-10T21:58:14.086Z,43.86
2023-05-10T22:00:40.500Z,43.91
2023-05-10T22:03:07.108Z,44.21
2023-05-10T22:05:33.650Z,44.04
2023-05-10T22:08:00.716Z,44.10
2023-05-10T22:10:29.837Z,44.23
2023-05-10T22:12:56.692Z,44.36
2023-05-10T22:15:23.011Z,44.47
2023-05-10T22:17:49.317Z,44.57
2023-05-10T22:20:15.686Z,44.61
2023-05-10T22:22:43.587Z,44.93
2023-05-10T22:25:10.559Z,44.87
2023-05-10T22:27:37.056Z,44.87
2023-05-10T22:30:04.283Z,44.87
2023-05-10T22:32:31.124Z,44.86
2023-05-10T22:34:57.456Z,45.01
2023-05-10T22:37:23.848Z,45.03
2023-05-10T22:39:50.392Z,45.11
2023-05-10T22:42:16.681Z,45.11
2023-05-10T22:44:43.642Z,45.30
2023-05-10T22:47:10.118Z,45.46
2023-05-10T22:49:36.880Z,45.63
2023-05-10T22:52:03.377Z,45.58
2023-05-10T22:54:29.849Z,45.57
2023-05-10T22:56:56.350Z,45.73
2023-05-10T22:59:23.094Z,45.97
2023-05-10T23:01:50.097Z,46.22
2023-05-10T23:04:16.366Z,46.27
2023-05-10T23:06:42.761Z,46.33
2023-05-10T23:09:09.182Z,46.33
2023-05-10T23:11:35.406Z,46.41
2023-05-10T23:14:01.739Z,46.47
2023-05-10T23:19:37.055Z,46.63
2023-05-10T23:22:04.781Z,46.93
2023-05-10T23:24:32.497Z,47.20
2023-05-10T23:27:00.211Z,47.29
2023-05-10T23:29:27.953Z,47.39
2023-05-10T23:31:55.918Z,47.61
2023-05-10T23:34:23.617Z,47.87
2023-05-10T23:36:51.289Z,47.83
2023-05-10T23:39:18.954Z,47.67
2023-05-10T23:41:46.762Z,47.76
2023-05-10T23:44:14.433Z,47.85
2023-05-10T23:46:42.136Z,47.96
2023-05-10T23:49:09.865Z,48.12
2023-05-10T23:51:37.532Z,48.31
2023-05-10T23:54:05.179Z,48.51
2023-05-10T23:56:33.277Z,48.39
2023-05-10T23:59:01.136Z,48.68
